Time;durP1;ratioP1;P1;durP2;ratioP2;P2;SDS_P1;SDS_P2;PMS_P1;PMS_P2;Temp;Humidity;BMP_temperature;BMP_pressure;BME280_temperature;BME280_humidity;BME280_pressure;Samples;Min_cycle;Max_cycle;Signal;HPM_P1;HPM_P2
2021/10/16 00:01:14;;;;;;;;;6.67;6.67;;;;;18.66;52.03;101822.47;5058300;28;45448;-56
2021/10/16 00:03:40;;;;;;;;;8.67;8.67;;;;;18.67;52.41;101818.94;5057987;28;46973;-54
2021/10/16 00:06:06;;;;;;;;;9.67;8.00;;;;;18.68;52.23;101819.81;5057753;28;45352;-52
2021/10/16 00:08:31;;;;;;;;;7.33;7.33;;;;;18.67;52.10;101810.97;5058041;28;45387;-54
2021/10/16 00:10:57;;;;;;;;;8.67;8.67;;;;;18.68;51.97;101809.16;5058207;28;45406;-54
2021/10/16 00:13:22;;;;;;;;;8.33;8.33;;;;;18.68;51.78;101811.81;5057913;28;47177;-57
2021/10/16 00:15:48;;;;;;;;;8.67;7.00;;;;;18.68;51.88;101811.81;5057893;28;45344;-55
2021/10/16 00:18:14;;;;;;;;;10.67;8.33;;;;;18.67;52.10;101808.28;5057968;28;45436;-56
2021/10/16 00:20:40;;;;;;;;;9.67;8.33;;;;;18.67;52.23;101808.28;5057859;28;45299;-54
2021/10/16 00:23:06;;;;;;;;;9.00;7.67;;;;;18.68;51.97;101811.81;5057452;28;46291;-55
2021/10/16 00:25:31;;;;;;;;;9.33;9.33;;;;;18.68;51.97;101822.47;5057425;28;45383;-59
2021/10/16 00:27:57;;;;;;;;;11.00;8.00;;;;;18.68;52.22;101814.50;5038762;28;45403;-59
2021/10/16 00:30:22;;;;;;;;;8.33;6.67;;;;;18.68;52.25;101823.38;5058018;28;45294;-57
2021/10/16 00:32:48;;;;;;;;;8.67;7.00;;;;;18.68;52.26;101823.38;5057574;28;47340;-59
2021/10/16 00:35:13;;;;;;;;;12.00;7.67;;;;;18.69;52.30;101824.28;5057182;28;45364;-60
2021/10/16 00:37:38;;;;;;;;;8.33;8.00;;;;;18.68;52.13;101811.81;5057361;28;45222;-58
2021/10/16 00:40:08;;;;;;;;;10.67;8.00;;;;;18.69;52.05;101816.28;5057451;28;45161;-54
2021/10/16 00:43:02;;;;;;;;;12.00;8.67;;;;;18.68;52.10;101814.50;5057464;28;45415;-56
2021/10/16 00:45:28;;;;;;;;;6.67;6.67;;;;;18.68;52.13;101818.03;4955736;28;45339;-59
2021/10/16 00:47:54;;;;;;;;;9.33;8.33;;;;;18.67;52.17;101818.94;4956434;28;45480;-59
2021/10/16 00:50:21;;;;;;;;;8.67;7.00;;;;;18.68;51.98;101825.13;4956318;28;45420;-55
2021/10/16 00:52:48;;;;;;;;;6.67;6.67;;;;;18.68;52.07;101819.81;4956085;28;47164;-58
2021/10/16 00:55:15;;;;;;;;;10.00;8.33;;;;;18.68;52.04;101819.81;4955757;28;45351;-56
2021/10/16 00:57:43;;;;;;;;;7.33;6.33;;;;;18.69;52.24;101818.94;4956065;28;45278;-56
2021/10/16 01:00:09;;;;;;;;;11.00;8.00;;;;;18.70;52.20;101818.94;4956156;28;45378;-59
2021/10/16 01:02:35;;;;;;;;;5.67;5.67;;;;;18.68;52.01;101819.81;4955839;28;46975;-57
2021/10/16 01:05:01;;;;;;;;;12.33;9.33;;;;;18.68;52.02;101812.72;4955798;28;45507;-62
2021/10/16 01:07:28;;;;;;;;;6.33;6.33;;;;;18.68;52.10;101817.16;4939848;28;45484;-61
2021/10/16 01:09:54;;;;;;;;;4.67;4.67;;;;;18.68;51.91;101811.81;4956318;28;45426;-55
2021/10/16 01:12:20;;;;;;;;;9.33;7.33;;;;;18.67;51.87;101807.41;4955591;28;46940;-61
2021/10/16 01:14:54;;;;;;;;;7.00;7.00;;;;;18.68;51.91;101809.16;4955737;28;45458;-54
2021/10/16 01:17:20;;;;;;;;;7.33;7.33;;;;;18.69;52.06;101810.94;4955172;28;45377;-62
2021/10/16 01:19:48;;;;;;;;;8.67;6.33;;;;;18.69;52.05;101802.97;4956012;28;45298;-55
2021/10/16 01:22:14;;;;;;;;;9.67;7.67;;;;;18.69;51.98;101802.97;5021108;28;46054;-54
2021/10/16 01:24:40;;;;;;;;;8.00;8.00;;;;;18.68;52.12;101806.50;5056658;28;45398;-56
2021/10/16 01:27:07;;;;;;;;;7.67;6.67;;;;;18.68;52.10;101798.50;5056833;28;45451;-60
2021/10/16 01:29:35;;;;;;;;;7.33;6.67;;;;;18.68;51.64;101799.41;5057122;28;45363;-58
2021/10/16 01:32:03;;;;;;;;;8.00;6.67;;;;;18.68;51.90;101799.41;5055306;28;45390;-56
2021/10/16 01:34:29;;;;;;;;;7.67;7.33;;;;;18.68;51.83;101795.84;5056093;28;45433;-56
2021/10/16 01:36:55;;;;;;;;;7.67;6.67;;;;;18.70;51.68;101797.63;5056669;28;45399;-58
2021/10/16 01:39:22;;;;;;;;;10.33;7.67;;;;;18.68;51.85;101794.06;5056670;28;45375;-60
2021/10/16 01:41:48;;;;;;;;;7.00;7.00;;;;;18.69;51.97;101789.66;5056695;28;46061;-58
2021/10/16 01:44:14;;;;;;;;;8.33;7.67;;;;;18.70;51.83;101791.41;5056406;28;45441;-57
2021/10/16 01:46:40;;;;;;;;;7.33;7.33;;;;;18.69;51.90;101789.66;5056691;28;45407;-58
2021/10/16 01:49:11;;;;;;;;;7.33;7.33;;;;;18.69;51.89;101792.31;5056593;28;45237;-61
2021/10/16 01:51:37;;;;;;;;;6.33;6.33;;;;;18.69;51.72;101792.31;5056076;28;46459;-55
2021/10/16 01:54:03;;;;;;;;;7.00;7.00;;;;;18.69;51.98;101786.97;5056293;28;45460;-60
2021/10/16 01:56:28;;;;;;;;;7.33;7.33;;;;;18.68;51.94;101793.19;5056348;28;45413;-54
2021/10/16 01:58:54;;;;;;;;;8.00;7.00;;;;;18.69;51.75;101789.66;5056773;28;45461;-56
2021/10/16 02:01:19;;;;;;;;;5.67;5.67;;;;;18.68;51.84;101785.19;5055998;28;45881;-59
2021/10/16 02:03:45;;;;;;;;;7.00;6.67;;;;;18.70;51.98;101781.66;5056218;28;45231;-56
2021/10/16 02:06:10;;;;;;;;;7.67;6.33;;;;;18.69;51.98;101784.31;5056320;28;45347;-59
2021/10/16 02:08:38;;;;;;;;;6.67;6.33;;;;;18.68;51.53;101778.09;5056281;28;45597;-57
2021/10/16 02:11:04;;;;;;;;;8.67;6.33;;;;;18.69;51.68;101776.31;5056184;28;47121;-55
2021/10/16 02:13:29;;;;;;;;;7.00;7.00;;;;;18.68;51.82;101771.88;5055947;28;45497;-57
2021/10/16 02:15:54;;;;;;;;;7.67;6.67;;;;;18.69;51.72;101784.31;5056343;28;45406;-60
2021/10/16 02:18:20;;;;;;;;;6.67;6.33;;;;;18.69;51.66;101781.66;5056289;28;45451;-57
2021/10/16 02:20:45;;;;;;;;;6.67;6.67;;;;;18.68;51.78;101775.44;5056080;28;45319;-61
2021/10/16 02:23:11;;;;;;;;;4.33;4.33;;;;;18.68;51.97;101771.88;5056156;28;45355;-58
2021/10/16 02:25:36;;;;;;;;;8.00;6.33;;;;;18.68;51.89;101775.44;5056214;28;45515;-59
2021/10/16 02:28:01;;;;;;;;;6.67;4.67;;;;;18.69;51.72;101771.00;5056342;28;45341;-54
2021/10/16 02:30:27;;;;;;;;;8.00;8.00;;;;;18.69;51.88;101771.00;5058055;28;46339;-55
2021/10/16 02:32:52;;;;;;;;;9.00;7.33;;;;;18.69;51.64;101771.00;5059563;28;45311;-57
2021/10/16 02:35:18;;;;;;;;;8.00;7.33;;;;;18.68;51.66;101767.44;5059283;28;45255;-60
2021/10/16 02:37:43;;;;;;;;;8.00;6.67;;;;;18.69;51.64;101768.34;5059397;28;45225;-61
2021/10/16 02:40:09;;;;;;;;;8.33;7.67;;;;;18.68;51.60;101769.22;5059198;28;46192;-60
2021/10/16 02:42:35;;;;;;;;;6.67;6.33;;;;;18.68;51.81;101767.44;5059311;28;45483;-59
2021/10/16 02:45:00;;;;;;;;;8.33;6.67;;;;;18.69;51.58;101765.69;5059541;28;45417;-59
2021/10/16 02:47:30;;;;;;;;;5.00;5.00;;;;;18.69;51.92;101773.66;5059773;28;45221;-55
2021/10/16 02:49:59;;;;;;;;;7.67;7.67;;;;;18.69;51.67;101768.34;5057904;28;45465;-57
2021/10/16 02:52:26;;;;;;;;;7.33;6.33;;;;;18.68;51.72;101769.22;5059391;28;45520;-58
2021/10/16 02:54:52;;;;;;;;;5.33;4.67;;;;;18.68;51.65;101772.78;5059100;28;45178;-60
2021/10/16 02:57:17;;;;;;;;;6.00;6.00;;;;;18.69;51.74;101771.00;5059257;28;45611;-56
2021/10/16 02:59:43;;;;;;;;;6.00;6.00;;;;;18.68;51.67;101767.44;5058771;28;46069;-55
2021/10/16 03:02:08;;;;;;;;;7.00;7.00;;;;;18.69;51.45;101768.34;5059143;28;45322;-58
2021/10/16 03:04:34;;;;;;;;;5.67;5.67;;;;;18.68;51.50;101770.09;5059107;28;45411;-56
2021/10/16 03:06:59;;;;;;;;;5.33;5.33;;;;;18.68;51.84;101770.09;5058962;28;45466;-60
2021/10/16 03:09:25;;;;;;;;;7.67;7.67;;;;;18.69;51.73;101765.69;5058800;28;46053;-56
2021/10/16 03:11:50;;;;;;;;;6.67;4.67;;;;;18.68;51.65;101763.88;5058679;28;45606;-58
2021/10/16 03:14:16;;;;;;;;;6.67;6.67;;;;;18.69;51.69;101763.00;5058783;28;45554;-55
2021/10/16 03:16:41;;;;;;;;;5.67;5.67;;;;;18.69;51.49;101763.00;5058952;28;45548;-60
2021/10/16 03:19:07;;;;;;;;;7.33;7.33;;;;;18.68;51.84;101761.22;5058656;28;46201;-57
2021/10/16 03:21:32;;;;;;;;;9.33;8.00;;;;;18.68;51.37;101766.56;5058583;28;45434;-60
2021/10/16 03:23:57;;;;;;;;;5.33;4.67;;;;;18.67;51.46;101749.72;5058672;28;45356;-50
2021/10/16 03:26:23;;;;;;;;;6.00;5.00;;;;;18.66;51.41;101763.91;5058909;28;45338;-59
2021/10/16 03:28:48;;;;;;;;;6.67;6.67;;;;;18.68;51.61;101761.22;5058715;28;46239;-56
2021/10/16 03:31:13;;;;;;;;;4.67;4.67;;;;;18.67;51.35;101755.03;5058583;28;45336;-58
2021/10/16 03:33:39;;;;;;;;;7.00;5.67;;;;;18.68;51.72;101761.22;5057934;28;45251;-61
2021/10/16 03:36:04;;;;;;;;;7.00;5.00;;;;;18.67;51.46;101765.69;5058512;28;45459;-59
2021/10/16 03:38:30;;;;;;;;;9.00;7.33;;;;;18.68;51.53;101764.78;5058111;28;47062;-61
2021/10/16 03:40:55;;;;;;;;;6.33;5.67;;;;;18.68;51.34;101769.22;5058043;28;45217;-62
2021/10/16 03:43:20;;;;;;;;;5.33;5.33;;;;;18.68;51.69;101766.56;5058481;28;45290;-60
2021/10/16 03:45:46;;;;;;;;;7.67;6.33;;;;;18.68;51.67;101761.22;5058626;28;45277;-55
2021/10/16 03:48:11;;;;;;;;;9.33;6.33;;;;;18.68;51.37;101763.88;5058232;28;45984;-55
2021/10/16 03:50:37;;;;;;;;;7.00;6.33;;;;;18.67;51.66;101757.69;5058114;28;45388;-56
2021/10/16 03:53:02;;;;;;;;;6.67;6.67;;;;;18.68;51.66;101759.44;5058200;28;45779;-60
2021/10/16 03:55:28;;;;;;;;;5.33;5.33;;;;;18.67;51.35;101752.38;5058296;28;45296;-52
2021/10/16 03:57:53;;;;;;;;;6.00;6.00;;;;;18.67;51.38;101754.13;5057932;28;47259;-55
2021/10/16 04:00:21;;;;;;;;;6.33;6.33;;;;;18.67;51.35;101754.13;5058032;28;45350;-56
2021/10/16 04:02:50;;;;;;;;;6.67;5.33;;;;;18.67;51.52;101760.34;5058168;28;45335;-59
2021/10/16 04:05:16;;;;;;;;;7.67;6.67;;;;;18.68;51.56;101755.91;5058303;28;45403;-60
2021/10/16 04:07:42;;;;;;;;;6.33;6.33;;;;;18.66;51.43;101758.56;5057795;28;47028;-59
2021/10/16 04:10:08;;;;;;;;;5.33;5.33;;;;;18.67;51.28;101763.03;5057819;28;45146;-57
2021/10/16 04:12:34;;;;;;;;;7.33;5.67;;;;;18.67;51.43;101770.13;5058266;28;45513;-59
2021/10/16 04:15:00;;;;;;;;;7.00;7.00;;;;;18.67;51.42;101763.03;5058020;28;45336;-58
2021/10/16 04:17:25;;;;;;;;;5.67;5.67;;;;;18.68;51.25;101764.78;5057945;28;46216;-56
2021/10/16 04:19:51;;;;;;;;;5.00;4.67;;;;;18.68;51.17;101771.88;5057254;28;45356;-52
2021/10/16 04:22:16;;;;;;;;;3.67;3.33;;;;;18.67;51.52;101759.47;5057867;28;45417;-54
2021/10/16 04:24:42;;;;;;;;;6.67;6.00;;;;;18.66;51.28;101763.91;5057962;28;45460;-57
2021/10/16 04:27:08;;;;;;;;;6.00;5.33;;;;;18.67;51.31;101759.47;5057535;28;47008;-61
2021/10/16 04:29:33;;;;;;;;;5.67;5.33;;;;;18.67;51.26;101770.13;5057666;28;45401;-55
2021/10/16 04:31:58;;;;;;;;;7.00;5.67;;;;;18.67;51.53;101772.78;5057814;28;45366;-57
2021/10/16 04:34:24;;;;;;;;;7.00;6.33;;;;;18.66;51.62;101774.53;5057813;28;45570;-57
2021/10/16 04:36:49;;;;;;;;;5.33;5.33;;;;;18.67;51.42;101771.00;5057338;28;46144;-55
2021/10/16 04:39:15;;;;;;;;;4.67;4.67;;;;;18.67;51.37;101775.44;5057411;28;45302;-57
2021/10/16 04:41:40;;;;;;;;;5.67;5.33;;;;;18.66;51.38;101771.88;5057698;28;45287;-52
2021/10/16 04:44:06;;;;;;;;;6.00;6.00;;;;;18.66;51.60;101771.00;5057749;28;45712;-61
2021/10/16 04:46:31;;;;;;;;;5.67;3.67;;;;;18.66;51.46;101771.00;5057410;28;46163;-60
2021/10/16 04:48:59;;;;;;;;;5.67;5.67;;;;;18.66;51.43;101776.31;5057545;28;45150;-59
2021/10/16 04:51:24;;;;;;;;;4.33;4.33;;;;;18.66;51.25;101778.97;5057138;28;45460;-62
2021/10/16 04:53:49;;;;;;;;;7.33;6.00;;;;;18.66;51.39;101774.53;5056765;28;45302;-62
2021/10/16 04:56:15;;;;;;;;;5.00;4.33;;;;;18.66;51.19;101776.31;5056872;28;45748;-58
2021/10/16 04:58:40;;;;;;;;;5.33;5.33;;;;;18.65;51.55;101783.44;5057167;28;45655;-61
2021/10/16 05:01:05;;;;;;;;;7.67;6.00;;;;;18.65;51.39;101785.22;5057459;28;45635;-63
2021/10/16 05:03:31;;;;;;;;;5.33;4.67;;;;;18.65;51.30;101780.78;5057367;28;45406;-62
2021/10/16 05:05:56;;;;;;;;;6.67;4.67;;;;;18.65;51.42;101780.78;5057204;28;45916;-62
2021/10/16 05:08:22;;;;;;;;;7.00;4.33;;;;;18.66;51.29;101781.63;5056327;28;45458;-62
2021/10/16 05:10:48;;;;;;;;;4.67;4.67;;;;;18.65;51.30;101778.13;5056985;28;45416;-65
2021/10/16 05:13:13;;;;;;;;;5.67;5.33;;;;;18.65;51.22;101794.09;5057117;28;45561;-63
2021/10/16 05:15:39;;;;;;;;;7.00;6.33;;;;;18.65;51.25;101794.09;5056758;28;45313;-60
2021/10/16 05:18:04;;;;;;;;;8.00;6.00;;;;;18.65;51.25;101796.75;5056835;28;45200;-55
2021/10/16 05:20:29;;;;;;;;;6.33;5.67;;;;;18.65;51.29;101793.19;5056882;28;45362;-54
2021/10/16 05:22:55;;;;;;;;;6.67;5.33;;;;;18.65;51.24;101798.53;5056518;28;45493;-60
2021/10/16 05:25:20;;;;;;;;;4.67;4.67;;;;;18.65;51.12;101799.41;5038437;28;46174;-61
2021/10/16 05:27:49;;;;;;;;;7.33;6.00;;;;;18.67;51.17;101796.75;5056569;28;45254;-62
2021/10/16 05:30:15;;;;;;;;;5.67;5.67;;;;;18.65;51.16;101794.09;5056880;28;45984;-61
2021/10/16 05:32:40;;;;;;;;;8.00;6.33;;;;;18.64;51.21;101792.31;5056648;28;45606;-54
2021/10/16 05:35:06;;;;;;;;;6.00;5.33;;;;;18.65;51.40;101794.09;5056262;28;47308;-60
2021/10/16 05:37:31;;;;;;;;;5.00;5.00;;;;;18.66;51.51;101800.28;5056254;28;45378;-57
2021/10/16 05:39:57;;;;;;;;;5.67;5.67;;;;;18.65;51.25;101791.44;5056587;28;45629;-55
2021/10/16 05:42:22;;;;;;;;;6.00;4.67;;;;;18.65;51.51;101790.53;5056620;28;45276;-62
2021/10/16 05:44:48;;;;;;;;;5.00;4.33;;;;;18.65;51.13;101796.75;5056478;28;46085;-61
2021/10/16 05:47:15;;;;;;;;;6.33;5.00;;;;;18.66;51.28;101794.97;5056381;28;45319;-49
2021/10/16 05:49:40;;;;;;;;;6.67;5.67;;;;;18.65;51.40;101795.84;5056386;28;45216;-57
2021/10/16 05:52:06;;;;;;;;;5.33;5.33;;;;;18.65;51.17;101794.09;5056630;28;45281;-58
2021/10/16 05:54:31;;;;;;;;;5.33;5.33;;;;;18.64;51.64;101794.97;5055991;28;46318;-57
2021/10/16 05:56:56;;;;;;;;;5.00;5.00;;;;;18.65;51.36;101793.19;5056287;28;45372;-61
2021/10/16 05:59:22;;;;;;;;;5.33;5.33;;;;;18.62;51.39;101794.06;5056351;28;45400;-60
2021/10/16 06:01:47;;;;;;;;;6.67;5.67;;;;;18.63;51.49;101786.06;5056530;28;45413;-53
2021/10/16 06:04:12;;;;;;;;;5.67;5.67;;;;;18.65;51.09;101793.19;5058199;28;46232;-58
2021/10/16 06:06:38;;;;;;;;;6.33;4.67;;;;;18.64;51.50;101792.31;5058788;28;45180;-54
2021/10/16 06:09:03;;;;;;;;;5.33;5.33;;;;;18.65;51.44;101793.19;5060167;28;45394;-61
2021/10/16 06:11:29;;;;;;;;;6.67;5.00;;;;;18.63;51.42;101791.41;5059906;28;45616;-51
2021/10/16 06:13:54;;;;;;;;;5.67;5.67;;;;;18.65;51.33;101791.44;5059643;28;46260;-60
2021/10/16 06:16:19;;;;;;;;;5.67;5.67;;;;;18.63;51.30;101794.06;5059833;28;45362;-57
2021/10/16 06:18:45;;;;;;;;;4.67;4.67;;;;;18.63;51.44;101796.72;5059610;28;45336;-57
2021/10/16 06:21:11;;;;;;;;;7.67;6.67;;;;;18.65;51.05;101795.84;5059949;28;45272;-58
2021/10/16 06:23:37;;;;;;;;;4.67;4.67;;;;;18.65;51.30;101801.19;5041205;28;47099;-59
2021/10/16 06:26:03;;;;;;;;;7.67;6.67;;;;;18.66;51.46;101800.28;5059281;28;45460;-57
2021/10/16 06:28:29;;;;;;;;;6.00;6.00;;;;;18.65;51.53;101795.84;5059601;28;45322;-57
2021/10/16 06:30:54;;;;;;;;;7.00;7.00;;;;;18.66;51.44;101802.94;5059949;28;45471;-63
2021/10/16 06:33:20;;;;;;;;;4.67;4.67;;;;;18.66;51.38;101805.59;5059330;28;46302;-59
2021/10/16 06:35:46;;;;;;;;;11.00;4.67;;;;;18.65;51.21;101810.06;5058928;28;45396;-62
2021/10/16 06:38:11;;;;;;;;;5.00;4.67;;;;;18.66;51.18;101810.94;5059327;28;45400;-60
2021/10/16 06:40:38;;;;;;;;;6.00;5.33;;;;;18.65;51.16;101803.84;5059617;28;45188;-56
2021/10/16 06:43:03;;;;;;;;;6.00;6.00;;;;;18.65;51.11;101803.84;5058706;28;46009;-58
2021/10/16 06:45:28;;;;;;;;;6.33;4.00;;;;;18.66;51.12;101805.59;5059205;28;45386;-52
2021/10/16 06:47:54;;;;;;;;;4.00;4.00;;;;;18.63;51.47;101802.06;5059253;28;45852;-64
2021/10/16 06:50:19;;;;;;;;;6.33;6.33;;;;;18.64;51.17;101802.94;5059329;28;45530;-63
2021/10/16 06:52:45;;;;;;;;;5.33;4.67;;;;;18.65;51.37;101806.50;5058810;28;47222;-55
2021/10/16 06:55:10;;;;;;;;;4.33;4.33;;;;;18.63;51.14;101802.06;5058999;28;45473;-55
2021/10/16 06:57:35;;;;;;;;;5.67;4.67;;;;;18.62;51.14;101805.63;5058309;28;45327;-57
2021/10/16 07:00:01;;;;;;;;;6.33;5.00;;;;;18.63;51.08;101804.72;5058981;28;45298;-54
2021/10/16 07:02:26;;;;;;;;;6.33;4.00;;;;;18.63;51.08;101807.38;5058870;28;46076;-60
2021/10/16 07:04:51;;;;;;;;;6.33;4.33;;;;;18.64;51.30;101813.59;5058979;28;45252;-57
2021/10/16 07:07:17;;;;;;;;;6.67;5.33;;;;;18.62;51.16;101807.38;5059290;28;45656;-54
2021/10/16 07:09:42;;;;;;;;;5.00;4.33;;;;;18.62;51.23;101813.63;5058794;28;45299;-59
2021/10/16 07:12:09;;;;;;;;;4.67;4.67;;;;;18.62;51.08;101813.63;5058704;28;46260;-54
2021/10/16 07:14:35;;;;;;;;;6.33;6.00;;;;;18.61;51.24;101817.16;5058158;28;45431;-56
2021/10/16 07:17:00;;;;;;;;;7.67;5.33;;;;;18.62;51.06;101818.03;5058211;28;45256;-56
2021/10/16 07:19:26;;;;;;;;;7.33;4.67;;;;;18.64;51.05;101832.25;5058883;28;45347;-56
2021/10/16 07:21:51;;;;;;;;;5.67;5.00;;;;;18.63;51.10;101834.00;5057553;28;45504;-55
2021/10/16 07:24:17;;;;;;;;;6.67;5.33;;;;;18.62;51.14;101826.94;5058629;28;45212;-57
2021/10/16 07:26:43;;;;;;;;;6.33;4.67;;;;;18.62;51.14;101832.25;5058756;28;45231;-59
2021/10/16 07:29:09;;;;;;;;;5.67;5.67;;;;;18.61;51.01;101825.13;5058851;28;45351;-56
2021/10/16 07:31:34;;;;;;;;;6.67;4.67;;;;;18.59;50.99;101829.56;5058277;28;45646;-64
2021/10/16 07:34:00;;;;;;;;;5.00;4.67;;;;;18.61;51.03;101841.13;5058106;28;45485;-63
2021/10/16 07:36:34;;;;;;;;;7.33;6.00;;;;;18.61;50.99;101845.56;5058548;28;45391;-60
2021/10/16 07:39:01;;;;;;;;;9.67;7.00;;;;;18.60;51.25;101847.34;5058486;28;45422;-60
2021/10/16 07:41:26;;;;;;;;;7.00;6.00;;;;;18.61;51.25;101842.91;5058161;28;46202;-57
2021/10/16 07:43:52;;;;;;;;;7.67;6.33;;;;;18.61;51.38;101842.91;5058234;28;45429;-65
2021/10/16 07:46:17;;;;;;;;;6.00;4.67;;;;;18.61;51.02;101834.91;5058251;28;45342;-64
2021/10/16 07:48:43;;;;;;;;;9.00;6.00;;;;;18.61;51.26;101835.78;5058342;28;45439;-57
2021/10/16 07:51:08;;;;;;;;;6.67;5.67;;;;;18.61;51.06;101838.44;5058058;28;46569;-54
2021/10/16 07:53:33;;;;;;;;;6.33;5.00;;;;;18.62;51.25;101839.34;5058191;28;45378;-55
2021/10/16 07:55:59;;;;;;;;;8.33;6.67;;;;;18.61;51.03;101846.44;5058187;28;45350;-50
2021/10/16 07:58:24;;;;;;;;;6.67;4.67;;;;;18.61;51.14;101845.56;5040344;28;45236;-60
2021/10/16 08:00:50;;;;;;;;;11.00;6.33;;;;;18.60;51.27;101843.78;5057957;28;46190;-54
2021/10/16 08:03:15;;;;;;;;;5.33;5.00;;;;;18.59;51.05;101845.53;5057765;28;45382;-57
2021/10/16 08:05:40;;;;;;;;;6.00;5.33;;;;;18.59;51.35;101850.88;5058095;28;45426;-58
2021/10/16 08:08:06;;;;;;;;;8.33;5.67;;;;;18.60;51.09;101850.00;5058127;28;45521;-54
2021/10/16 08:10:31;;;;;;;;;5.33;4.33;;;;;18.60;50.98;101847.34;5057738;28;46259;-62
2021/10/16 08:12:57;;;;;;;;;6.67;6.67;;;;;18.59;51.00;101840.22;5057974;28;45244;-59
2021/10/16 08:15:22;;;;;;;;;5.00;5.00;;;;;18.60;50.99;101849.09;5057572;28;45374;-63
2021/10/16 08:17:47;;;;;;;;;7.33;4.33;;;;;18.59;51.37;101848.22;5058041;28;45245;-61
2021/10/16 08:20:13;;;;;;;;;7.67;6.33;;;;;18.60;51.18;101850.00;5057404;28;46801;-59
2021/10/16 08:22:42;;;;;;;;;7.00;7.00;;;;;18.60;51.31;101850.00;5057707;28;45315;-61
2021/10/16 08:25:12;;;;;;;;;12.00;7.67;;;;;18.59;51.50;101844.69;5057768;28;45385;-54
2021/10/16 08:27:38;;;;;;;;;8.00;5.67;;;;;18.60;51.41;101834.03;5056416;28;45237;-60
2021/10/16 08:30:06;;;;;;;;;6.67;6.33;;;;;18.59;51.19;101837.56;5057271;28;46384;-58
2021/10/16 08:32:31;;;;;;;;;4.67;4.67;;;;;18.59;51.10;101842.88;5057445;28;45360;-60
2021/10/16 08:34:57;;;;;;;;;7.00;5.67;;;;;18.59;51.13;101840.22;5057516;28;45316;-62
2021/10/16 08:37:22;;;;;;;;;7.33;5.67;;;;;18.59;51.40;101845.53;5057590;28;45525;-63
2021/10/16 08:39:47;;;;;;;;;4.67;4.67;;;;;18.59;51.36;101845.53;5057190;28;47090;-59
2021/10/16 08:42:13;;;;;;;;;7.67;6.33;;;;;18.59;51.28;101845.53;5057340;28;45423;-62
2021/10/16 08:44:38;;;;;;;;;8.00;7.00;;;;;18.58;51.37;101851.78;5057429;28;45397;-56
2021/10/16 08:47:03;;;;;;;;;6.67;6.67;;;;;18.59;51.34;101855.34;5057815;28;45300;-62
2021/10/16 08:49:31;;;;;;;;;7.67;6.33;;;;;18.59;51.54;101856.19;5056209;28;46506;-54
2021/10/16 08:51:57;;;;;;;;;6.67;5.00;;;;;18.59;51.42;101864.19;5056265;28;45407;-61
2021/10/16 08:54:23;;;;;;;;;7.33;5.67;;;;;18.58;51.36;101857.09;5057051;28;45279;-63
2021/10/16 08:56:48;;;;;;;;;6.67;5.33;;;;;18.58;51.29;101857.09;5057253;28;45225;-54
2021/10/16 08:59:14;;;;;;;;;5.67;4.67;;;;;18.58;51.20;101858.88;5056739;28;45606;-64
2021/10/16 09:02:01;;;;;;;;;8.67;6.33;;;;;18.57;51.39;101871.28;5022234;28;45464;-55
2021/10/16 09:04:28;;;;;;;;;8.33;5.67;;;;;18.59;51.80;101874.84;5057383;28;45426;-58
2021/10/16 09:06:53;;;;;;;;;6.33;6.33;;;;;18.58;51.77;101867.75;5057138;28;45267;-60
2021/10/16 09:09:24;;;;;;;;;11.33;6.33;;;;;18.58;51.69;101870.41;5056666;28;45473;-61
2021/10/16 09:11:53;;;;;;;;;10.00;6.33;;;;;18.59;51.91;101871.31;5056857;28;45429;-62
2021/10/16 09:14:20;;;;;;;;;7.00;5.67;;;;;18.60;52.08;101873.06;5056686;28;45477;-60
2021/10/16 09:17:05;;;;;;;;;7.67;6.00;;;;;18.59;52.18;101869.50;5057312;28;45192;-58
2021/10/16 09:19:33;;;;;;;;;10.00;6.33;;;;;18.58;51.99;101867.75;5056575;28;47178;-63
2021/10/16 09:22:04;;;;;;;;;6.00;6.00;;;;;18.60;51.73;101867.75;5056927;28;45342;-60
2021/10/16 09:24:32;;;;;;;;;4.67;4.00;;;;;18.60;51.71;101862.41;5056833;28;45278;-59
2021/10/16 09:27:06;;;;;;;;;8.67;4.67;;;;;18.59;51.63;101872.19;5056996;28;45824;-60
2021/10/16 09:29:35;;;;;;;;;4.67;4.67;;;;;18.58;51.78;101867.75;5056526;28;47321;-57
2021/10/16 09:32:01;;;;;;;;;7.00;5.67;;;;;18.59;51.87;101873.97;5056788;28;45288;-56
2021/10/16 09:34:28;;;;;;;;;7.67;6.33;;;;;18.59;52.06;101874.84;5056690;28;45482;-59
2021/10/16 09:37:10;;;;;;;;;9.67;7.33;;;;;18.58;51.79;101867.75;5056693;28;45422;-57
2021/10/16 09:39:38;;;;;;;;;5.00;4.33;;;;;18.59;52.04;101869.50;5055652;28;46560;-56
2021/10/16 09:42:05;;;;;;;;;6.00;4.33;;;;;18.58;52.02;101862.44;5056437;28;45355;-57
2021/10/16 09:44:32;;;;;;;;;11.00;6.00;;;;;18.58;52.01;101866.84;5056584;28;45591;-58
2021/10/16 09:47:11;;;;;;;;;5.67;4.33;;;;;18.58;52.20;101872.19;5056696;28;45257;-58
2021/10/16 09:50:16;;;;;;;;;8.67;6.00;;;;;18.57;52.08;101867.75;5056319;28;47228;-60
2021/10/16 09:52:43;;;;;;;;;8.00;5.33;;;;;18.58;52.04;101873.06;4954986;28;45546;-57
2021/10/16 09:55:12;;;;;;;;;8.33;5.67;;;;;18.57;52.23;101865.97;4955205;28;45508;-58
2021/10/16 09:57:40;;;;;;;;;5.67;4.67;;;;;18.58;52.23;101865.09;4955460;28;45240;-58
2021/10/16 10:00:06;;;;;;;;;6.33;4.33;;;;;18.58;52.07;101867.75;4938903;28;47281;-52
2021/10/16 10:02:32;;;;;;;;;5.33;3.67;;;;;18.59;52.39;101864.19;4954964;28;45349;-54
2021/10/16 10:05:01;;;;;;;;;5.67;4.33;;;;;18.58;52.37;101862.44;4955217;28;45391;-55
2021/10/16 10:07:27;;;;;;;;;7.33;4.33;;;;;18.59;52.26;101866.84;4955363;28;45492;-53
2021/10/16 10:09:52;;;;;;;;;6.67;5.00;;;;;18.60;52.20;101865.09;4954709;28;46304;-57
2021/10/16 10:12:19;;;;;;;;;4.00;3.67;;;;;18.59;52.53;101855.34;4954876;28;45373;-55
2021/10/16 10:14:47;;;;;;;;;9.00;5.67;;;;;18.59;52.54;101864.19;4955174;28;45453;-54
2021/10/16 10:17:17;;;;;;;;;8.00;5.33;;;;;18.60;52.48;101858.00;4954946;28;45601;-52
2021/10/16 10:19:46;;;;;;;;;5.67;4.67;;;;;18.61;52.45;101861.56;4954881;28;46305;-51
2021/10/16 10:22:13;;;;;;;;;6.33;4.67;;;;;18.60;52.48;101858.00;4954797;28;45347;-53
2021/10/16 10:24:42;;;;;;;;;6.33;4.67;;;;;18.61;52.31;101859.75;4954892;28;45390;-55
2021/10/16 10:27:09;;;;;;;;;6.00;4.33;;;;;18.60;52.55;101855.34;4961798;28;45496;-52
2021/10/16 10:29:36;;;;;;;;;6.33;5.33;;;;;18.61;52.69;101859.75;5055790;28;47151;-53
2021/10/16 10:32:26;;;;;;;;;7.67;5.33;;;;;18.61;52.46;101857.09;5054510;28;45310;-54
2021/10/16 10:35:00;;;;;;;;;6.00;4.67;;;;;18.61;52.38;101857.09;4954510;28;45228;-52
2021/10/16 10:37:41;;;;;;;;;7.00;4.67;;;;;18.62;52.76;101858.88;4955274;28;45349;-51
2021/10/16 10:40:17;;;;;;;;;39.50;33.00;;;;;18.62;52.89;101858.88;4954480;28;47311;-54
2021/10/16 10:42:46;;;;;;;;;60.50;47.75;;;;;18.62;53.15;101856.22;4954379;28;45456;-59
2021/10/16 10:45:32;;;;;;;;;58.50;45.25;;;;;18.64;53.18;101856.22;4954455;28;45418;-48
2021/10/16 10:48:17;;;;;;;;;44.25;35.50;;;;;18.63;52.92;101855.31;4954983;28;45496;-55
2021/10/16 10:50:57;;;;;;;;;30.50;28.50;;;;;18.63;53.02;101852.66;4955416;28;47128;-50
2021/10/16 10:53:26;;;;;;;;;35.75;30.50;;;;;18.64;52.86;101858.88;4957855;28;45386;-53
2021/10/16 10:56:19;;;;;;;;;32.50;29.50;;;;;18.65;52.97;101858.00;4957940;28;45295;-54
2021/10/16 10:58:56;;;;;;;;;33.00;28.25;;;;;18.66;52.91;101853.53;4957911;28;45493;-51
2021/10/16 11:01:45;;;;;;;;;33.75;30.75;;;;;18.66;53.24;101851.78;4957375;28;47251;-48
2021/10/16 11:04:30;;;;;;;;;33.75;26.50;;;;;18.66;52.94;101845.56;4957450;28;45362;-57
2021/10/16 11:07:01;;;;;;;;;32.25;27.50;;;;;18.66;53.00;101851.78;4957786;28;45368;-54
2021/10/16 11:09:27;;;;;;;;;35.75;30.50;;;;;18.67;53.17;101850.91;4957959;28;45432;-53
2021/10/16 11:11:52;;;;;;;;;32.00;28.33;;;;;18.66;53.03;101838.47;5008305;28;45970;-59
2021/10/16 11:14:18;;;;;;;;;35.25;29.50;;;;;18.67;52.95;101839.34;5058734;28;45422;-61
2021/10/16 11:17:02;;;;;;;;;27.33;25.33;;;;;18.68;53.01;101846.44;5058931;28;45207;-61
2021/10/16 11:19:28;;;;;;;;;26.67;25.33;;;;;18.68;53.28;101841.13;5040608;28;45292;-52
2021/10/16 11:21:55;;;;;;;;;26.00;23.33;;;;;18.68;53.14;101846.44;5058537;28;46154;-58
2021/10/16 11:24:20;;;;;;;;;27.67;24.33;;;;;18.68;53.13;101842.00;5058077;28;45432;-57